Current Weather

Paso De Los Libres

Paso De Los Libres, Argentina (SARL)

Report from: Sunday, May 22, 2022 5:00 AM -03
Current time: Sunday, May 22, 2022 5:22 AM -03

Nearby weather
Weather history
Weather forecast

Present weatherMist
Temperature8.0°C (46.4°F)
Wind chill5.8°C (42.4°F)
Dew point7.0°C (44.6°F)
Winds 7 kts (3.6 m/s, 8.1 mph) Southwest (230°)
Visibility3.1 mi. (5 km)
Altimeter30.15 in.Hg (1021 mB)
Relative humidity93 %
Density altitude-959 ft. (-292 m)
Flight conditions Marginal Visual Meteorological Conditions
Raw dataSARL 220800Z 23007KT 5000 BR NSC 08/07 Q1021
An error has occurred. This application may no longer respond until reloaded. Reload 🗙